sensor_id;sensor_type;location;lat;lon;timestamp;temperature;humidity
25102;DHT22;13087;51.472;5.464;2022-08-14T00:00:53;30.80;26.00
25102;DHT22;13087;51.472;5.464;2022-08-14T00:05:44;30.70;26.10
25102;DHT22;13087;51.472;5.464;2022-08-14T00:08:10;30.70;26.20
25102;DHT22;13087;51.472;5.464;2022-08-14T00:10:35;30.60;26.20
25102;DHT22;13087;51.472;5.464;2022-08-14T00:13:01;30.60;26.30
25102;DHT22;13087;51.472;5.464;2022-08-14T00:15:31;30.60;26.40
25102;DHT22;13087;51.472;5.464;2022-08-14T00:17:59;30.50;26.40
25102;DHT22;13087;51.472;5.464;2022-08-14T00:20:26;30.50;26.40
25102;DHT22;13087;51.472;5.464;2022-08-14T00:22:51;30.40;26.40
25102;DHT22;13087;51.472;5.464;2022-08-14T00:25:17;30.40;26.40
25102;DHT22;13087;51.472;5.464;2022-08-14T00:27:43;30.40;26.40
25102;DHT22;13087;51.472;5.464;2022-08-14T00:30:09;30.30;26.50
25102;DHT22;13087;51.472;5.464;2022-08-14T00:32:35;30.30;26.60
25102;DHT22;13087;51.472;5.464;2022-08-14T00:35:01;30.20;26.60
25102;DHT22;13087;51.472;5.464;2022-08-14T00:37:27;30.20;26.70
25102;DHT22;13087;51.472;5.464;2022-08-14T00:39:53;30.20;26.70
25102;DHT22;13087;51.472;5.464;2022-08-14T00:42:19;30.20;26.70
25102;DHT22;13087;51.472;5.464;2022-08-14T00:44:44;30.10;26.70
25102;DHT22;13087;51.472;5.464;2022-08-14T00:47:12;30.20;26.80
25102;DHT22;13087;51.472;5.464;2022-08-14T00:49:37;30.20;26.80
25102;DHT22;13087;51.472;5.464;2022-08-14T00:52:03;30.20;26.80
25102;DHT22;13087;51.472;5.464;2022-08-14T00:54:29;30.10;26.90
25102;DHT22;13087;51.472;5.464;2022-08-14T00:56:55;30.10;26.90
25102;DHT22;13087;51.472;5.464;2022-08-14T00:59:20;30.00;26.90
25102;DHT22;13087;51.472;5.464;2022-08-14T01:01:47;30.00;26.90
25102;DHT22;13087;51.472;5.464;2022-08-14T01:04:13;30.10;26.90
25102;DHT22;13087;51.472;5.464;2022-08-14T01:06:38;30.00;27.00
25102;DHT22;13087;51.472;5.464;2022-08-14T01:09:04;29.90;27.00
25102;DHT22;13087;51.472;5.464;2022-08-14T01:11:29;29.90;27.00
25102;DHT22;13087;51.472;5.464;2022-08-14T01:13:55;29.90;27.10
25102;DHT22;13087;51.472;5.464;2022-08-14T01:16:25;29.80;27.10
25102;DHT22;13087;51.472;5.464;2022-08-14T01:18:51;29.80;27.10
25102;DHT22;13087;51.472;5.464;2022-08-14T01:21:36;29.80;27.10
25102;DHT22;13087;51.472;5.464;2022-08-14T01:24:03;29.80;27.20
25102;DHT22;13087;51.472;5.464;2022-08-14T01:26:29;29.70;27.10
25102;DHT22;13087;51.472;5.464;2022-08-14T01:28:55;29.70;27.20
25102;DHT22;13087;51.472;5.464;2022-08-14T01:31:22;29.70;27.20
25102;DHT22;13087;51.472;5.464;2022-08-14T01:33:49;29.70;27.20
25102;DHT22;13087;51.472;5.464;2022-08-14T01:36:15;29.70;27.80
25102;DHT22;13087;51.472;5.464;2022-08-14T01:38:42;29.70;28.20
25102;DHT22;13087;51.472;5.464;2022-08-14T01:41:08;29.60;28.60
25102;DHT22;13087;51.472;5.464;2022-08-14T01:43:42;29.50;29.20
25102;DHT22;13087;51.472;5.464;2022-08-14T01:46:07;29.40;29.70
25102;DHT22;13087;51.472;5.464;2022-08-14T01:48:36;29.40;30.10
25102;DHT22;13087;51.472;5.464;2022-08-14T01:51:01;29.40;30.00
25102;DHT22;13087;51.472;5.464;2022-08-14T01:53:28;29.30;30.10
25102;DHT22;13087;51.472;5.464;2022-08-14T01:55:57;29.30;30.30
25102;DHT22;13087;51.472;5.464;2022-08-14T01:58:23;29.20;30.50
25102;DHT22;13087;51.472;5.464;2022-08-14T02:00:52;29.10;31.00
25102;DHT22;13087;51.472;5.464;2022-08-14T02:03:19;29.00;31.00
25102;DHT22;13087;51.472;5.464;2022-08-14T02:05:44;29.00;31.00
25102;DHT22;13087;51.472;5.464;2022-08-14T02:08:10;28.90;31.50
25102;DHT22;13087;51.472;5.464;2022-08-14T02:10:38;28.90;31.50
25102;DHT22;13087;51.472;5.464;2022-08-14T02:13:04;28.80;31.00
25102;DHT22;13087;51.472;5.464;2022-08-14T02:15:32;28.70;31.20
25102;DHT22;13087;51.472;5.464;2022-08-14T02:17:57;28.70;31.20
25102;DHT22;13087;51.472;5.464;2022-08-14T02:20:28;28.60;31.10
25102;DHT22;13087;51.472;5.464;2022-08-14T02:22:53;28.50;31.30
25102;DHT22;13087;51.472;5.464;2022-08-14T02:25:19;28.40;31.30
25102;DHT22;13087;51.472;5.464;2022-08-14T02:27:44;28.30;31.70
25102;DHT22;13087;51.472;5.464;2022-08-14T02:30:10;28.30;31.60
25102;DHT22;13087;51.472;5.464;2022-08-14T02:32:36;28.30;31.70
25102;DHT22;13087;51.472;5.464;2022-08-14T02:35:06;28.30;31.90
25102;DHT22;13087;51.472;5.464;2022-08-14T02:37:42;28.20;31.80
25102;DHT22;13087;51.472;5.464;2022-08-14T02:40:07;28.10;31.60
25102;DHT22;13087;51.472;5.464;2022-08-14T02:42:33;28.10;31.70
25102;DHT22;13087;51.472;5.464;2022-08-14T02:44:58;28.10;31.60
25102;DHT22;13087;51.472;5.464;2022-08-14T02:47:24;28.10;31.50
25102;DHT22;13087;51.472;5.464;2022-08-14T02:49:52;28.10;31.50
25102;DHT22;13087;51.472;5.464;2022-08-14T02:52:18;28.10;31.40
25102;DHT22;13087;51.472;5.464;2022-08-14T02:54:43;28.10;31.60
25102;DHT22;13087;51.472;5.464;2022-08-14T02:57:10;28.10;31.90
25102;DHT22;13087;51.472;5.464;2022-08-14T02:59:35;28.10;32.20
25102;DHT22;13087;51.472;5.464;2022-08-14T03:02:03;28.10;32.50
25102;DHT22;13087;51.472;5.464;2022-08-14T03:04:29;28.10;32.20
25102;DHT22;13087;51.472;5.464;2022-08-14T03:06:55;28.20;32.00
25102;DHT22;13087;51.472;5.464;2022-08-14T03:09:21;28.20;32.00
25102;DHT22;13087;51.472;5.464;2022-08-14T03:11:47;28.20;32.40
25102;DHT22;13087;51.472;5.464;2022-08-14T03:14:12;28.30;31.60
25102;DHT22;13087;51.472;5.464;2022-08-14T03:16:38;28.30;31.50
25102;DHT22;13087;51.472;5.464;2022-08-14T03:19:04;28.30;31.40
25102;DHT22;13087;51.472;5.464;2022-08-14T03:21:32;28.30;31.40
25102;DHT22;13087;51.472;5.464;2022-08-14T03:23:57;28.30;32.00
25102;DHT22;13087;51.472;5.464;2022-08-14T03:26:47;28.20;32.30
25102;DHT22;13087;51.472;5.464;2022-08-14T03:29:15;28.20;32.90
25102;DHT22;13087;51.472;5.464;2022-08-14T03:31:45;28.10;32.60
25102;DHT22;13087;51.472;5.464;2022-08-14T03:34:13;28.10;32.70
25102;DHT22;13087;51.472;5.464;2022-08-14T03:36:39;28.10;33.30
25102;DHT22;13087;51.472;5.464;2022-08-14T03:39:05;28.00;33.60
25102;DHT22;13087;51.472;5.464;2022-08-14T03:41:30;27.90;33.40
25102;DHT22;13087;51.472;5.464;2022-08-14T03:43:57;27.80;33.60
25102;DHT22;13087;51.472;5.464;2022-08-14T03:46:26;27.70;33.90
25102;DHT22;13087;51.472;5.464;2022-08-14T03:48:53;27.70;34.50
25102;DHT22;13087;51.472;5.464;2022-08-14T03:51:19;27.60;35.00
25102;DHT22;13087;51.472;5.464;2022-08-14T03:53:45;27.60;35.00
25102;DHT22;13087;51.472;5.464;2022-08-14T03:56:12;27.50;34.90
25102;DHT22;13087;51.472;5.464;2022-08-14T03:58:39;27.50;35.30
25102;DHT22;13087;51.472;5.464;2022-08-14T04:01:07;27.50;35.10
25102;DHT22;13087;51.472;5.464;2022-08-14T04:03:33;27.50;35.10
25102;DHT22;13087;51.472;5.464;2022-08-14T04:05:59;27.50;35.10
25102;DHT22;13087;51.472;5.464;2022-08-14T04:08:24;27.50;35.00
25102;DHT22;13087;51.472;5.464;2022-08-14T04:10:50;27.60;35.00
25102;DHT22;13087;51.472;5.464;2022-08-14T04:13:15;27.60;34.80
25102;DHT22;13087;51.472;5.464;2022-08-14T04:15:45;27.80;34.90
25102;DHT22;13087;51.472;5.464;2022-08-14T04:18:11;27.90;35.00
25102;DHT22;13087;51.472;5.464;2022-08-14T04:20:38;28.00;35.20
25102;DHT22;13087;51.472;5.464;2022-08-14T04:23:05;28.10;35.20
25102;DHT22;13087;51.472;5.464;2022-08-14T04:25:31;28.10;34.90
25102;DHT22;13087;51.472;5.464;2022-08-14T04:28:02;28.20;34.60
25102;DHT22;13087;51.472;5.464;2022-08-14T04:30:28;28.20;34.90
25102;DHT22;13087;51.472;5.464;2022-08-14T04:32:55;28.20;34.80
25102;DHT22;13087;51.472;5.464;2022-08-14T04:35:21;28.30;34.80
25102;DHT22;13087;51.472;5.464;2022-08-14T04:37:47;28.30;35.10
25102;DHT22;13087;51.472;5.464;2022-08-14T04:40:31;28.30;35.40
25102;DHT22;13087;51.472;5.464;2022-08-14T04:43:15;28.30;34.80
25102;DHT22;13087;51.472;5.464;2022-08-14T04:45:59;28.40;34.70
25102;DHT22;13087;51.472;5.464;2022-08-14T04:48:25;28.40;34.50
25102;DHT22;13087;51.472;5.464;2022-08-14T04:50:51;28.50;34.40
25102;DHT22;13087;51.472;5.464;2022-08-14T04:53:18;28.40;34.10
25102;DHT22;13087;51.472;5.464;2022-08-14T04:55:45;28.40;34.00
25102;DHT22;13087;51.472;5.464;2022-08-14T04:58:13;28.40;34.00
25102;DHT22;13087;51.472;5.464;2022-08-14T05:00:38;28.40;33.90
25102;DHT22;13087;51.472;5.464;2022-08-14T05:03:04;28.40;33.90
25102;DHT22;13087;51.472;5.464;2022-08-14T05:05:30;28.30;34.00
25102;DHT22;13087;51.472;5.464;2022-08-14T05:08:02;28.40;33.90
25102;DHT22;13087;51.472;5.464;2022-08-14T05:10:33;28.50;33.90
25102;DHT22;13087;51.472;5.464;2022-08-14T05:12:59;28.50;33.90
25102;DHT22;13087;51.472;5.464;2022-08-14T05:15:24;28.50;34.00
25102;DHT22;13087;51.472;5.464;2022-08-14T05:17:53;28.60;34.00
25102;DHT22;13087;51.472;5.464;2022-08-14T05:20:19;28.60;33.90
25102;DHT22;13087;51.472;5.464;2022-08-14T05:22:44;28.60;33.90
25102;DHT22;13087;51.472;5.464;2022-08-14T05:25:10;28.70;33.90
25102;DHT22;13087;51.472;5.464;2022-08-14T05:27:36;28.70;33.60
25102;DHT22;13087;51.472;5.464;2022-08-14T05:30:03;28.70;33.60
25102;DHT22;13087;51.472;5.464;2022-08-14T05:32:29;28.70;33.60
25102;DHT22;13087;51.472;5.464;2022-08-14T05:34:55;28.70;33.60
25102;DHT22;13087;51.472;5.464;2022-08-14T05:37:22;28.70;33.60
25102;DHT22;13087;51.472;5.464;2022-08-14T05:39:48;28.70;33.60
25102;DHT22;13087;51.472;5.464;2022-08-14T05:42:14;28.70;33.50
25102;DHT22;13087;51.472;5.464;2022-08-14T05:44:39;28.70;33.90
25102;DHT22;13087;51.472;5.464;2022-08-14T05:47:05;28.60;34.30
25102;DHT22;13087;51.472;5.464;2022-08-14T05:49:30;28.60;34.80
25102;DHT22;13087;51.472;5.464;2022-08-14T05:51:56;28.60;35.10
25102;DHT22;13087;51.472;5.464;2022-08-14T05:54:21;28.60;35.20
25102;DHT22;13087;51.472;5.464;2022-08-14T05:56:47;28.60;35.20
25102;DHT22;13087;51.472;5.464;2022-08-14T05:59:12;28.50;35.10
25102;DHT22;13087;51.472;5.464;2022-08-14T06:01:38;28.50;35.40
25102;DHT22;13087;51.472;5.464;2022-08-14T06:04:03;28.50;35.40
25102;DHT22;13087;51.472;5.464;2022-08-14T06:06:29;28.50;35.80
25102;DHT22;13087;51.472;5.464;2022-08-14T06:08:54;28.50;35.90
25102;DHT22;13087;51.472;5.464;2022-08-14T06:11:20;28.50;36.50
25102;DHT22;13087;51.472;5.464;2022-08-14T06:13:45;28.40;36.80
25102;DHT22;13087;51.472;5.464;2022-08-14T06:16:11;28.20;37.20
25102;DHT22;13087;51.472;5.464;2022-08-14T06:18:36;28.10;37.40
25102;DHT22;13087;51.472;5.464;2022-08-14T06:21:02;28.00;37.70
25102;DHT22;13087;51.472;5.464;2022-08-14T06:23:28;27.90;37.70
25102;DHT22;13087;51.472;5.464;2022-08-14T06:25:53;27.90;38.00
25102;DHT22;13087;51.472;5.464;2022-08-14T06:28:20;27.80;38.00
25102;DHT22;13087;51.472;5.464;2022-08-14T06:30:47;27.80;38.30
25102;DHT22;13087;51.472;5.464;2022-08-14T06:33:12;27.80;38.20
25102;DHT22;13087;51.472;5.464;2022-08-14T06:35:38;27.80;38.40
25102;DHT22;13087;51.472;5.464;2022-08-14T06:38:04;27.80;38.40
25102;DHT22;13087;51.472;5.464;2022-08-14T06:40:33;27.80;39.00
25102;DHT22;13087;51.472;5.464;2022-08-14T06:43:03;27.80;39.10
25102;DHT22;13087;51.472;5.464;2022-08-14T06:45:30;27.70;39.50
25102;DHT22;13087;51.472;5.464;2022-08-14T06:47:55;27.70;39.60
25102;DHT22;13087;51.472;5.464;2022-08-14T06:50:21;27.70;39.60
25102;DHT22;13087;51.472;5.464;2022-08-14T06:52:47;27.70;39.80
25102;DHT22;13087;51.472;5.464;2022-08-14T06:55:13;27.80;39.90
25102;DHT22;13087;51.472;5.464;2022-08-14T06:57:40;27.80;39.80
25102;DHT22;13087;51.472;5.464;2022-08-14T07:00:10;27.90;39.80
25102;DHT22;13087;51.472;5.464;2022-08-14T07:02:36;27.90;39.80
25102;DHT22;13087;51.472;5.464;2022-08-14T07:05:20;27.90;39.50
25102;DHT22;13087;51.472;5.464;2022-08-14T07:08:04;28.00;39.60
25102;DHT22;13087;51.472;5.464;2022-08-14T07:10:30;28.10;39.20
25102;DHT22;13087;51.472;5.464;2022-08-14T07:12:56;28.20;39.40
25102;DHT22;13087;51.472;5.464;2022-08-14T07:15:21;28.20;39.40
25102;DHT22;13087;51.472;5.464;2022-08-14T07:17:47;28.30;39.30
25102;DHT22;13087;51.472;5.464;2022-08-14T07:20:13;28.30;39.20
25102;DHT22;13087;51.472;5.464;2022-08-14T07:22:38;28.40;39.20
25102;DHT22;13087;51.472;5.464;2022-08-14T07:25:04;28.40;39.20
25102;DHT22;13087;51.472;5.464;2022-08-14T07:27:29;28.50;39.20
25102;DHT22;13087;51.472;5.464;2022-08-14T07:29:55;28.50;39.30
25102;DHT22;13087;51.472;5.464;2022-08-14T07:32:20;28.60;39.00
25102;DHT22;13087;51.472;5.464;2022-08-14T07:34:46;28.60;39.10
25102;DHT22;13087;51.472;5.464;2022-08-14T07:37:12;28.70;38.90
25102;DHT22;13087;51.472;5.464;2022-08-14T07:39:37;28.70;38.90
25102;DHT22;13087;51.472;5.464;2022-08-14T07:42:03;28.80;38.80
25102;DHT22;13087;51.472;5.464;2022-08-14T07:44:28;28.90;38.70
25102;DHT22;13087;51.472;5.464;2022-08-14T07:46:54;29.00;38.50
25102;DHT22;13087;51.472;5.464;2022-08-14T07:49:19;29.00;38.30
25102;DHT22;13087;51.472;5.464;2022-08-14T07:51:45;29.10;38.20
25102;DHT22;13087;51.472;5.464;2022-08-14T07:54:11;29.20;38.00
25102;DHT22;13087;51.472;5.464;2022-08-14T07:56:36;29.20;37.80
25102;DHT22;13087;51.472;5.464;2022-08-14T07:59:02;29.30;37.70
25102;DHT22;13087;51.472;5.464;2022-08-14T08:01:28;29.30;37.60
25102;DHT22;13087;51.472;5.464;2022-08-14T08:03:55;29.30;37.50
25102;DHT22;13087;51.472;5.464;2022-08-14T08:06:23;29.40;37.50
25102;DHT22;13087;51.472;5.464;2022-08-14T08:08:49;29.40;37.40
25102;DHT22;13087;51.472;5.464;2022-08-14T08:11:17;29.40;37.40
25102;DHT22;13087;51.472;5.464;2022-08-14T08:13:43;29.40;37.20
25102;DHT22;13087;51.472;5.464;2022-08-14T08:16:09;29.50;37.30
25102;DHT22;13087;51.472;5.464;2022-08-14T08:18:35;29.60;37.20
25102;DHT22;13087;51.472;5.464;2022-08-14T08:21:00;29.70;36.90
25102;DHT22;13087;51.472;5.464;2022-08-14T08:23:26;29.80;36.80
25102;DHT22;13087;51.472;5.464;2022-08-14T08:25:54;29.90;36.70
25102;DHT22;13087;51.472;5.464;2022-08-14T08:28:20;30.00;36.60
25102;DHT22;13087;51.472;5.464;2022-08-14T08:30:47;30.10;36.70
25102;DHT22;13087;51.472;5.464;2022-08-14T08:33:13;30.10;36.60
25102;DHT22;13087;51.472;5.464;2022-08-14T08:35:41;30.20;36.60
25102;DHT22;13087;51.472;5.464;2022-08-14T08:38:14;30.30;36.40
25102;DHT22;13087;51.472;5.464;2022-08-14T08:40:48;30.40;36.30
25102;DHT22;13087;51.472;5.464;2022-08-14T08:48:27;30.70;35.90
25102;DHT22;13087;51.472;5.464;2022-08-14T08:50:55;30.80;35.80
25102;DHT22;13087;51.472;5.464;2022-08-14T08:53:21;30.90;35.60
25102;DHT22;13087;51.472;5.464;2022-08-14T08:55:46;31.00;35.50
25102;DHT22;13087;51.472;5.464;2022-08-14T08:58:13;31.10;35.50
25102;DHT22;13087;51.472;5.464;2022-08-14T09:00:40;31.20;35.40
25102;DHT22;13087;51.472;5.464;2022-08-14T09:03:07;31.20;35.30
25102;DHT22;13087;51.472;5.464;2022-08-14T09:05:34;31.30;35.30
25102;DHT22;13087;51.472;5.464;2022-08-14T09:10:35;31.50;35.10
25102;DHT22;13087;51.472;5.464;2022-08-14T09:13:01;31.50;34.90
25102;DHT22;13087;51.472;5.464;2022-08-14T09:15:27;31.60;34.70
25102;DHT22;13087;51.472;5.464;2022-08-14T09:17:52;31.70;34.70
25102;DHT22;13087;51.472;5.464;2022-08-14T09:20:18;31.70;34.50
25102;DHT22;13087;51.472;5.464;2022-08-14T09:22:43;31.80;34.70
25102;DHT22;13087;51.472;5.464;2022-08-14T09:25:09;31.90;34.20
25102;DHT22;13087;51.472;5.464;2022-08-14T09:27:35;32.00;34.10
25102;DHT22;13087;51.472;5.464;2022-08-14T09:30:01;32.10;34.20
25102;DHT22;13087;51.472;5.464;2022-08-14T09:32:28;32.10;34.10
25102;DHT22;13087;51.472;5.464;2022-08-14T09:37:47;32.30;34.00
25102;DHT22;13087;51.472;5.464;2022-08-14T09:40:30;32.40;34.00
25102;DHT22;13087;51.472;5.464;2022-08-14T09:45:45;32.60;33.90
25102;DHT22;13087;51.472;5.464;2022-08-14T09:48:13;32.60;33.90
25102;DHT22;13087;51.472;5.464;2022-08-14T09:50:57;32.70;33.80
25102;DHT22;13087;51.472;5.464;2022-08-14T09:53:41;32.80;33.60
25102;DHT22;13087;51.472;5.464;2022-08-14T09:56:08;32.90;33.40
25102;DHT22;13087;51.472;5.464;2022-08-14T09:58:36;33.00;33.40
25102;DHT22;13087;51.472;5.464;2022-08-14T10:01:07;33.10;33.30
25102;DHT22;13087;51.472;5.464;2022-08-14T10:03:34;33.20;33.20
25102;DHT22;13087;51.472;5.464;2022-08-14T10:06:03;33.30;33.20
25102;DHT22;13087;51.472;5.464;2022-08-14T10:08:38;33.50;32.60
25102;DHT22;13087;51.472;5.464;2022-08-14T10:11:11;33.50;32.70
25102;DHT22;13087;51.472;5.464;2022-08-14T10:13:40;33.60;32.00
25102;DHT22;13087;51.472;5.464;2022-08-14T10:16:05;33.70;32.00
25102;DHT22;13087;51.472;5.464;2022-08-14T10:18:34;33.70;31.90
25102;DHT22;13087;51.472;5.464;2022-08-14T10:21:00;33.70;31.80
25102;DHT22;13087;51.472;5.464;2022-08-14T10:23:26;33.80;31.90
25102;DHT22;13087;51.472;5.464;2022-08-14T10:25:56;33.80;31.90
25102;DHT22;13087;51.472;5.464;2022-08-14T10:28:23;33.90;31.90
25102;DHT22;13087;51.472;5.464;2022-08-14T10:30:49;34.10;31.90
25102;DHT22;13087;51.472;5.464;2022-08-14T10:35:50;34.20;31.50
25102;DHT22;13087;51.472;5.464;2022-08-14T10:38:28;34.30;31.40
25102;DHT22;13087;51.472;5.464;2022-08-14T10:41:08;34.40;31.20
25102;DHT22;13087;51.472;5.464;2022-08-14T10:43:34;34.50;31.10
25102;DHT22;13087;51.472;5.464;2022-08-14T10:45:59;34.60;31.10
25102;DHT22;13087;51.472;5.464;2022-08-14T10:48:26;34.60;31.00
25102;DHT22;13087;51.472;5.464;2022-08-14T10:50:51;34.70;31.00
25102;DHT22;13087;51.472;5.464;2022-08-14T10:53:27;34.80;30.80
25102;DHT22;13087;51.472;5.464;2022-08-14T10:55:56;34.90;30.80
25102;DHT22;13087;51.472;5.464;2022-08-14T10:58:26;34.90;30.70
25102;DHT22;13087;51.472;5.464;2022-08-14T11:00:55;34.80;30.40
25102;DHT22;13087;51.472;5.464;2022-08-14T11:03:21;34.80;30.30
25102;DHT22;13087;51.472;5.464;2022-08-14T11:05:49;34.80;29.90
25102;DHT22;13087;51.472;5.464;2022-08-14T11:08:15;34.80;29.90
25102;DHT22;13087;51.472;5.464;2022-08-14T11:10:46;34.80;29.40
25102;DHT22;13087;51.472;5.464;2022-08-14T11:13:18;34.80;29.50
25102;DHT22;13087;51.472;5.464;2022-08-14T11:15:46;34.90;29.60
25102;DHT22;13087;51.472;5.464;2022-08-14T11:18:13;34.90;29.40
25102;DHT22;13087;51.472;5.464;2022-08-14T11:20:39;35.00;29.20
25102;DHT22;13087;51.472;5.464;2022-08-14T11:23:06;35.10;29.30
25102;DHT22;13087;51.472;5.464;2022-08-14T11:25:33;35.20;29.20
25102;DHT22;13087;51.472;5.464;2022-08-14T11:28:01;35.30;29.30
25102;DHT22;13087;51.472;5.464;2022-08-14T11:30:28;35.30;29.10
25102;DHT22;13087;51.472;5.464;2022-08-14T11:32:54;35.40;29.10
25102;DHT22;13087;51.472;5.464;2022-08-14T11:35:21;35.40;29.20
25102;DHT22;13087;51.472;5.464;2022-08-14T11:37:47;35.50;29.20
25102;DHT22;13087;51.472;5.464;2022-08-14T11:40:16;35.70;29.20
25102;DHT22;13087;51.472;5.464;2022-08-14T11:42:44;35.90;29.00
25102;DHT22;13087;51.472;5.464;2022-08-14T11:45:10;36.00;28.70
25102;DHT22;13087;51.472;5.464;2022-08-14T11:47:36;36.00;28.30
25102;DHT22;13087;51.472;5.464;2022-08-14T11:50:10;36.00;28.40
25102;DHT22;13087;51.472;5.464;2022-08-14T11:52:35;36.10;28.50
25102;DHT22;13087;51.472;5.464;2022-08-14T11:55:01;36.30;28.30
25102;DHT22;13087;51.472;5.464;2022-08-14T11:57:32;36.50;28.40
25102;DHT22;13087;51.472;5.464;2022-08-14T12:00:01;36.60;28.20
25102;DHT22;13087;51.472;5.464;2022-08-14T12:02:26;36.80;28.10
25102;DHT22;13087;51.472;5.464;2022-08-14T12:04:52;36.80;28.10
25102;DHT22;13087;51.472;5.464;2022-08-14T12:07:17;36.90;28.20
25102;DHT22;13087;51.472;5.464;2022-08-14T12:09:44;37.00;27.80
25102;DHT22;13087;51.472;5.464;2022-08-14T12:12:14;37.10;27.60
25102;DHT22;13087;51.472;5.464;2022-08-14T12:14:49;37.20;27.60
25102;DHT22;13087;51.472;5.464;2022-08-14T12:17:17;37.40;27.50
25102;DHT22;13087;51.472;5.464;2022-08-14T12:19:44;37.60;27.50
25102;DHT22;13087;51.472;5.464;2022-08-14T12:22:10;37.70;27.50
25102;DHT22;13087;51.472;5.464;2022-08-14T12:24:35;37.80;26.60
25102;DHT22;13087;51.472;5.464;2022-08-14T12:27:01;37.60;25.80
25102;DHT22;13087;51.472;5.464;2022-08-14T12:29:27;37.50;25.70
25102;DHT22;13087;51.472;5.464;2022-08-14T12:31:59;37.50;25.50
25102;DHT22;13087;51.472;5.464;2022-08-14T12:34:29;37.50;25.60
25102;DHT22;13087;51.472;5.464;2022-08-14T12:37:05;37.70;25.90
25102;DHT22;13087;51.472;5.464;2022-08-14T12:39:31;37.90;25.90
25102;DHT22;13087;51.472;5.464;2022-08-14T12:41:57;38.20;26.00
25102;DHT22;13087;51.472;5.464;2022-08-14T12:44:34;38.50;26.00
25102;DHT22;13087;51.472;5.464;2022-08-14T12:47:11;38.70;25.50
25102;DHT22;13087;51.472;5.464;2022-08-14T12:49:52;38.80;25.40
25102;DHT22;13087;51.472;5.464;2022-08-14T12:55:00;39.20;24.90
25102;DHT22;13087;51.472;5.464;2022-08-14T12:57:33;39.30;24.80
25102;DHT22;13087;51.472;5.464;2022-08-14T13:00:08;39.50;24.50
25102;DHT22;13087;51.472;5.464;2022-08-14T13:02:37;39.50;23.50
25102;DHT22;13087;51.472;5.464;2022-08-14T13:05:03;39.60;23.90
25102;DHT22;13087;51.472;5.464;2022-08-14T13:07:29;39.80;24.10
25102;DHT22;13087;51.472;5.464;2022-08-14T13:09:55;40.00;24.10
25102;DHT22;13087;51.472;5.464;2022-08-14T13:12:22;40.20;23.70
25102;DHT22;13087;51.472;5.464;2022-08-14T13:14:57;40.50;23.80
25102;DHT22;13087;51.472;5.464;2022-08-14T13:17:26;40.70;23.70
25102;DHT22;13087;51.472;5.464;2022-08-14T13:19:52;40.80;23.30
25102;DHT22;13087;51.472;5.464;2022-08-14T13:22:21;40.80;22.50
25102;DHT22;13087;51.472;5.464;2022-08-14T13:24:51;40.80;22.90
25102;DHT22;13087;51.472;5.464;2022-08-14T13:27:19;40.90;23.00
25102;DHT22;13087;51.472;5.464;2022-08-14T13:29:45;40.80;22.60
25102;DHT22;13087;51.472;5.464;2022-08-14T13:32:11;40.60;22.50
25102;DHT22;13087;51.472;5.464;2022-08-14T13:34:37;40.40;22.90
25102;DHT22;13087;51.472;5.464;2022-08-14T13:37:02;40.40;23.10
25102;DHT22;13087;51.472;5.464;2022-08-14T13:39:31;40.50;23.50
25102;DHT22;13087;51.472;5.464;2022-08-14T13:41:56;40.60;23.40
25102;DHT22;13087;51.472;5.464;2022-08-14T13:44:28;40.60;23.20
25102;DHT22;13087;51.472;5.464;2022-08-14T13:46:56;40.40;22.80
25102;DHT22;13087;51.472;5.464;2022-08-14T13:49:22;40.00;23.10
25102;DHT22;13087;51.472;5.464;2022-08-14T13:51:48;39.70;23.30
25102;DHT22;13087;51.472;5.464;2022-08-14T13:54:17;39.60;23.70
25102;DHT22;13087;51.472;5.464;2022-08-14T13:56:45;39.50;23.60
25102;DHT22;13087;51.472;5.464;2022-08-14T13:59:11;39.40;23.40
25102;DHT22;13087;51.472;5.464;2022-08-14T14:01:37;39.50;23.50
25102;DHT22;13087;51.472;5.464;2022-08-14T14:04:03;39.50;23.60
25102;DHT22;13087;51.472;5.464;2022-08-14T14:06:32;39.30;23.70
25102;DHT22;13087;51.472;5.464;2022-08-14T14:08:57;39.20;23.70
25102;DHT22;13087;51.472;5.464;2022-08-14T14:11:23;39.20;23.80
25102;DHT22;13087;51.472;5.464;2022-08-14T14:13:53;39.00;23.80
25102;DHT22;13087;51.472;5.464;2022-08-14T14:16:19;39.00;23.80
25102;DHT22;13087;51.472;5.464;2022-08-14T14:18:49;39.00;23.80
25102;DHT22;13087;51.472;5.464;2022-08-14T14:21:19;39.10;23.80
25102;DHT22;13087;51.472;5.464;2022-08-14T14:23:45;39.00;23.70
25102;DHT22;13087;51.472;5.464;2022-08-14T14:26:13;39.10;23.70
25102;DHT22;13087;51.472;5.464;2022-08-14T14:28:40;39.20;23.70
25102;DHT22;13087;51.472;5.464;2022-08-14T14:31:06;39.30;23.90
25102;DHT22;13087;51.472;5.464;2022-08-14T14:33:32;39.30;23.60
25102;DHT22;13087;51.472;5.464;2022-08-14T14:35:58;39.40;23.60
25102;DHT22;13087;51.472;5.464;2022-08-14T14:38:25;39.40;23.40
25102;DHT22;13087;51.472;5.464;2022-08-14T14:40:52;39.20;23.40
25102;DHT22;13087;51.472;5.464;2022-08-14T14:43:19;39.10;23.50
25102;DHT22;13087;51.472;5.464;2022-08-14T14:45:45;39.00;23.50
25102;DHT22;13087;51.472;5.464;2022-08-14T14:48:13;39.00;23.70
25102;DHT22;13087;51.472;5.464;2022-08-14T14:50:39;39.00;23.80
25102;DHT22;13087;51.472;5.464;2022-08-14T14:53:05;39.00;23.80
25102;DHT22;13087;51.472;5.464;2022-08-14T14:55:30;39.20;23.60
25102;DHT22;13087;51.472;5.464;2022-08-14T14:57:59;39.40;23.40
25102;DHT22;13087;51.472;5.464;2022-08-14T15:00:25;39.60;23.40
25102;DHT22;13087;51.472;5.464;2022-08-14T15:02:51;39.80;23.20
25102;DHT22;13087;51.472;5.464;2022-08-14T15:05:17;39.90;23.20
25102;DHT22;13087;51.472;5.464;2022-08-14T15:07:43;40.00;22.90
25102;DHT22;13087;51.472;5.464;2022-08-14T15:10:10;40.00;22.80
25102;DHT22;13087;51.472;5.464;2022-08-14T15:12:35;40.00;22.90
25102;DHT22;13087;51.472;5.464;2022-08-14T15:15:02;40.00;23.00
25102;DHT22;13087;51.472;5.464;2022-08-14T15:17:27;40.00;23.20
25102;DHT22;13087;51.472;5.464;2022-08-14T15:20:04;39.90;23.10
25102;DHT22;13087;51.472;5.464;2022-08-14T15:22:31;39.80;23.20
25102;DHT22;13087;51.472;5.464;2022-08-14T15:24:56;39.90;23.40
25102;DHT22;13087;51.472;5.464;2022-08-14T15:27:22;39.90;23.30
25102;DHT22;13087;51.472;5.464;2022-08-14T15:29:48;40.00;23.40
25102;DHT22;13087;51.472;5.464;2022-08-14T15:32:14;40.00;23.20
25102;DHT22;13087;51.472;5.464;2022-08-14T15:34:41;40.00;23.10
25102;DHT22;13087;51.472;5.464;2022-08-14T15:37:08;39.90;22.90
25102;DHT22;13087;51.472;5.464;2022-08-14T15:39:34;39.80;22.90
25102;DHT22;13087;51.472;5.464;2022-08-14T15:41:59;39.70;22.90
25102;DHT22;13087;51.472;5.464;2022-08-14T15:44:27;39.60;23.00
25102;DHT22;13087;51.472;5.464;2022-08-14T15:46:54;39.60;23.00
25102;DHT22;13087;51.472;5.464;2022-08-14T15:49:21;39.50;23.20
25102;DHT22;13087;51.472;5.464;2022-08-14T15:51:48;39.40;23.30